Time;durP1;ratioP1;P1;durP2;ratioP2;P2;SDS_P1;SDS_P2;PMS_P1;PMS_P2;Temp;Humidity;BMP_temperature;BMP_pressure;BME280_temperature;BME280_humidity;BME280_pressure;Samples;Min_cycle;Max_cycle;Signal;HPM_P1;HPM_P2
2021/10/08 00:01:31;;;;;;;;;;;11.70;99.90;;;;;;4917586;28;19934;-76
2021/10/08 00:04:22;;;;;;;;;;;11.60;99.90;;;;;;4919740;29;20018;-76
2021/10/08 00:07:11;;;;;;;;;;;11.50;99.90;;;;;;4926246;29;20017;-76
2021/10/08 00:10:04;;;;;;;;;;;11.50;99.90;;;;;;4927849;29;19934;-76
2021/10/08 00:12:56;;;;;;;;;;;11.60;99.90;;;;;;4925548;29;20273;-76
2021/10/08 00:15:48;;;;;;;;;;;11.60;99.90;;;;;;4917624;28;19927;-76
2021/10/08 00:18:41;;;;;;;;;;;11.60;99.90;;;;;;4937378;29;19990;-76
2021/10/08 00:21:30;;;;;;;;;;;11.50;99.90;;;;;;4939014;29;19931;-75
2021/10/08 00:24:20;;;;;;;;;;;11.50;99.90;;;;;;4934939;29;19934;-76
2021/10/08 00:27:09;;;;;;;;;;;11.40;99.90;;;;;;4928665;29;19952;-76
2021/10/08 00:29:59;;;;;;;;;;;11.40;99.90;;;;;;4928895;29;20027;-75
2021/10/08 00:32:53;;;;;;;;;;;11.30;99.90;;;;;;4927466;28;19931;-76
2021/10/08 00:35:45;;;;;;;;;;;11.30;99.90;;;;;;4910756;29;19991;-76
2021/10/08 00:38:35;;;;;;;;;;;11.20;99.90;;;;;;4917997;29;19927;-76
2021/10/08 00:41:27;;;;;;;;;;;11.20;99.90;;;;;;4928833;29;19927;-75
2021/10/08 00:44:24;;;;;;;;;;;11.10;99.90;;;;;;4928851;29;20294;-75
2021/10/08 00:47:14;;;;;;;;;;;11.20;99.90;;;;;;4919361;29;19953;-75
2021/10/08 00:50:07;;;;;;;;;;;11.10;99.90;;;;;;4920700;29;20521;-76
2021/10/08 00:52:59;;;;;;;;;;;11.10;99.90;;;;;;4919917;29;20055;-76
2021/10/08 00:55:49;;;;;;;;;;;11.10;99.90;;;;;;4937501;29;20331;-76
2021/10/08 00:58:40;;;;;;;;;;;11.20;99.90;;;;;;4917611;29;19939;-76
2021/10/08 01:01:29;;;;;;;;;;;11.10;99.90;;;;;;4926013;28;19930;-76
2021/10/08 01:04:18;;;;;;;;;;;11.10;99.90;;;;;;4926577;28;20364;-76
2021/10/08 01:07:09;;;;;;;;;;;11.00;99.90;;;;;;4913984;29;19951;-76
2021/10/08 01:09:58;;;;;;;;;;;11.00;99.90;;;;;;4918504;29;19927;-76
2021/10/08 01:12:52;;;;;;;;;;;11.00;99.90;;;;;;4915527;29;19943;-75
2021/10/08 01:15:42;;;;;;;;;;;11.10;99.90;;;;;;4912506;28;19934;-76
2021/10/08 01:18:32;;;;;;;;;;;11.10;99.90;;;;;;4920296;28;20399;-76
2021/10/08 01:21:23;;;;;;;;;;;11.10;99.90;;;;;;4917145;29;20013;-76
2021/10/08 01:24:13;;;;;;;;;;;11.10;99.90;;;;;;4951754;29;19927;-76
2021/10/08 01:27:03;;;;;;;;;;;11.10;99.90;;;;;;4923226;29;19927;-75
2021/10/08 01:29:53;;;;;;;;;;;11.10;99.90;;;;;;4925755;28;19927;-75
2021/10/08 01:32:48;;;;;;;;;;;11.00;99.90;;;;;;4926839;29;19930;-75
2021/10/08 01:35:40;;;;;;;;;;;11.10;99.90;;;;;;4923830;29;19935;-75
2021/10/08 01:38:36;;;;;;;;;;;11.10;99.90;;;;;;4917479;29;20010;-75
2021/10/08 01:41:26;;;;;;;;;;;11.10;99.90;;;;;;4927864;29;19931;-75
2021/10/08 01:44:15;;;;;;;;;;;11.10;99.90;;;;;;4923163;29;20013;-75
2021/10/08 01:47:05;;;;;;;;;;;11.10;99.90;;;;;;4900667;29;20375;-75
2021/10/08 01:49:55;;;;;;;;;;;11.10;99.90;;;;;;4903253;29;20376;-75
2021/10/08 01:56:00;;;;;;;;;;;11.10;99.90;;;;;;4905500;29;20000;-75
2021/10/08 01:59:01;;;;;;;;;;;11.10;99.90;;;;;;4912588;29;19927;-75
2021/10/08 02:01:54;;;;;;;;;;;11.00;99.90;;;;;;4893273;29;19959;-76
2021/10/08 02:04:43;;;;;;;;;;;11.00;99.90;;;;;;4899175;29;19934;-76
2021/10/08 02:07:32;;;;;;;;;;;10.90;99.90;;;;;;4905140;29;20333;-76
2021/10/08 02:10:23;;;;;;;;;;;10.90;99.90;;;;;;4900593;29;19927;-76
2021/10/08 02:13:14;;;;;;;;;;;10.80;99.90;;;;;;4908738;29;20323;-76
2021/10/08 02:16:08;;;;;;;;;;;10.80;99.90;;;;;;4890788;29;19938;-76
2021/10/08 02:18:59;;;;;;;;;;;10.70;99.90;;;;;;4910853;29;19935;-76
2021/10/08 02:21:51;;;;;;;;;;;10.70;99.90;;;;;;4897992;29;19931;-75
2021/10/08 02:24:43;;;;;;;;;;;10.60;99.90;;;;;;4895282;29;19931;-75
2021/10/08 02:27:33;;;;;;;;;;;10.60;99.90;;;;;;4897732;29;20011;-75
2021/10/08 02:30:28;;;;;;;;;;;10.50;99.90;;;;;;4902324;29;19963;-75
2021/10/08 02:33:23;;;;;;;;;;;10.50;99.90;;;;;;4892408;29;20268;-75
2021/10/08 02:36:12;;;;;;;;;;;10.50;99.90;;;;;;4899123;29;19927;-75
2021/10/08 02:39:03;;;;;;;;;;;10.40;99.90;;;;;;4908811;29;20394;-76
2021/10/08 02:41:53;;;;;;;;;;;10.50;99.90;;;;;;4896963;29;19983;-76
2021/10/08 02:44:42;;;;;;;;;;;10.40;99.90;;;;;;4909732;29;19928;-75
2021/10/08 02:47:35;;;;;;;;;;;10.40;99.90;;;;;;4899569;29;19935;-75
2021/10/08 02:50:26;;;;;;;;;;;10.40;99.90;;;;;;4895233;29;19947;-75
2021/10/08 02:53:16;;;;;;;;;;;10.30;99.90;;;;;;4892769;29;19934;-75
2021/10/08 02:56:06;;;;;;;;;;;10.40;99.90;;;;;;4906243;29;19978;-76
2021/10/08 02:58:58;;;;;;;;;;;10.30;99.90;;;;;;4913263;29;19927;-76
2021/10/08 03:01:49;;;;;;;;;;;10.40;99.90;;;;;;4888421;29;19962;-76
2021/10/08 03:04:42;;;;;;;;;;;10.40;99.90;;;;;;4908166;29;19963;-76
2021/10/08 03:07:35;;;;;;;;;;;10.40;99.90;;;;;;4912257;28;19927;-76
2021/10/08 03:10:24;;;;;;;;;;;10.30;99.90;;;;;;4898471;29;19927;-75
2021/10/08 03:13:13;;;;;;;;;;;10.30;99.90;;;;;;4891412;28;20300;-76
2021/10/08 03:16:06;;;;;;;;;;;10.30;99.90;;;;;;4899124;29;19927;-76
2021/10/08 03:18:55;;;;;;;;;;;10.30;99.90;;;;;;4906864;29;19931;-76
2021/10/08 03:21:46;;;;;;;;;;;10.30;99.90;;;;;;4902566;29;19931;-76
2021/10/08 03:24:36;;;;;;;;;;;10.30;99.90;;;;;;4893315;29;19938;-76
2021/10/08 03:27:25;;;;;;;;;;;10.30;99.90;;;;;;4898935;29;20269;-76
2021/10/08 03:30:20;;;;;;;;;;;10.30;99.90;;;;;;4897714;28;19933;-76
2021/10/08 03:33:09;;;;;;;;;;;10.30;99.90;;;;;;4899743;29;19934;-75
2021/10/08 03:36:00;;;;;;;;;;;10.30;99.90;;;;;;4901802;29;20360;-75
2021/10/08 03:38:53;;;;;;;;;;;10.30;99.90;;;;;;4906189;29;19934;-76
2021/10/08 03:41:44;;;;;;;;;;;10.30;99.90;;;;;;4908958;29;20408;-76
2021/10/08 03:44:38;;;;;;;;;;;10.30;99.90;;;;;;4893948;29;20300;-76
2021/10/08 03:47:40;;;;;;;;;;;10.30;99.90;;;;;;4895257;29;19931;-76
2021/10/08 03:50:29;;;;;;;;;;;10.30;99.90;;;;;;4909270;29;19934;-75
2021/10/08 03:53:19;;;;;;;;;;;10.30;99.90;;;;;;4901308;29;19931;-76
2021/10/08 03:56:13;;;;;;;;;;;10.30;99.90;;;;;;4911364;29;19934;-76
2021/10/08 03:59:05;;;;;;;;;;;10.20;99.90;;;;;;4909382;29;19970;-76
2021/10/08 04:01:55;;;;;;;;;;;10.10;99.90;;;;;;4899870;29;20287;-76
2021/10/08 04:04:47;;;;;;;;;;;10.20;99.90;;;;;;4894924;29;19928;-76
2021/10/08 04:07:37;;;;;;;;;;;10.20;99.90;;;;;;4893251;29;20401;-76
2021/10/08 04:10:28;;;;;;;;;;;10.20;99.90;;;;;;4908580;29;19991;-76
2021/10/08 04:13:19;;;;;;;;;;;10.20;99.90;;;;;;4903956;29;19927;-76
2021/10/08 04:16:08;;;;;;;;;;;10.20;99.90;;;;;;4900516;29;19938;-75
2021/10/08 04:19:00;;;;;;;;;;;10.20;99.90;;;;;;4907227;29;19939;-75
2021/10/08 04:21:50;;;;;;;;;;;10.20;99.90;;;;;;4903359;29;20387;-75
2021/10/08 04:24:42;;;;;;;;;;;10.20;99.90;;;;;;4905407;29;19928;-75
2021/10/08 04:27:33;;;;;;;;;;;10.30;99.90;;;;;;4909132;29;19931;-75
2021/10/08 04:30:25;;;;;;;;;;;10.30;99.90;;;;;;4908609;29;20040;-75
2021/10/08 04:33:16;;;;;;;;;;;10.20;99.90;;;;;;4912946;29;19928;-75
2021/10/08 04:36:10;;;;;;;;;;;10.30;99.90;;;;;;4902892;29;19970;-75
2021/10/08 04:39:05;;;;;;;;;;;10.30;99.90;;;;;;4906702;28;19935;-76
2021/10/08 04:41:55;;;;;;;;;;;10.20;99.90;;;;;;4908284;29;19927;-76
2021/10/08 04:44:46;;;;;;;;;;;10.20;99.90;;;;;;4908582;29;20335;-76
2021/10/08 04:47:38;;;;;;;;;;;10.20;99.90;;;;;;4892168;29;19935;-76
2021/10/08 04:50:28;;;;;;;;;;;10.20;99.90;;;;;;4897486;29;19992;-76
2021/10/08 04:53:19;;;;;;;;;;;10.20;99.90;;;;;;4903353;29;19931;-76
2021/10/08 04:56:10;;;;;;;;;;;10.30;99.90;;;;;;4914801;29;19938;-75
2021/10/08 04:58:59;;;;;;;;;;;10.30;99.90;;;;;;4919686;29;20024;-75
2021/10/08 05:01:49;;;;;;;;;;;10.40;99.90;;;;;;4913560;29;20368;-76
2021/10/08 05:04:39;;;;;;;;;;;10.30;99.90;;;;;;4902093;29;19934;-76
2021/10/08 05:07:31;;;;;;;;;;;10.40;99.90;;;;;;4910582;29;19995;-76
2021/10/08 05:10:22;;;;;;;;;;;10.40;99.90;;;;;;4923870;29;19915;-76
2021/10/08 05:13:13;;;;;;;;;;;10.40;99.90;;;;;;4912437;29;20052;-76
2021/10/08 05:16:10;;;;;;;;;;;10.30;99.90;;;;;;4910220;29;19950;-76
2021/10/08 05:19:00;;;;;;;;;;;10.30;99.90;;;;;;4904393;29;20017;-77
2021/10/08 05:22:00;;;;;;;;;;;10.20;99.90;;;;;;4908412;29;20339;-78
2021/10/08 05:24:51;;;;;;;;;;;10.20;99.90;;;;;;4905379;29;19931;-77
2021/10/08 05:27:40;;;;;;;;;;;10.30;99.90;;;;;;4901891;29;19927;-76
2021/10/08 05:30:31;;;;;;;;;;;10.30;99.90;;;;;;4911778;29;19927;-75
2021/10/08 05:33:22;;;;;;;;;;;10.30;99.90;;;;;;4901716;29;19927;-76
2021/10/08 05:36:12;;;;;;;;;;;10.40;99.90;;;;;;4897430;29;19933;-76
2021/10/08 05:39:03;;;;;;;;;;;10.40;99.90;;;;;;4913518;29;20440;-76
2021/10/08 05:41:54;;;;;;;;;;;10.40;99.90;;;;;;4903948;29;20270;-76
2021/10/08 05:44:43;;;;;;;;;;;10.40;99.90;;;;;;4901342;29;19931;-76
2021/10/08 05:47:33;;;;;;;;;;;10.50;99.90;;;;;;4897580;29;19935;-77
2021/10/08 05:50:22;;;;;;;;;;;10.60;99.90;;;;;;4897468;29;20175;-77
2021/10/08 05:53:36;;;;;;;;;;;10.60;99.90;;;;;;4910104;29;19937;-75
2021/10/08 05:56:28;;;;;;;;;;;10.70;99.90;;;;;;4912900;29;19934;-78
2021/10/08 05:59:22;;;;;;;;;;;10.70;99.90;;;;;;4912280;29;19927;-83
2021/10/08 06:02:10;;;;;;;;;;;10.80;99.90;;;;;;4897736;29;19927;-78
2021/10/08 06:05:01;;;;;;;;;;;10.80;99.90;;;;;;4908754;29;19935;-78
2021/10/08 06:07:51;;;;;;;;;;;10.80;99.90;;;;;;4877281;23;2563032;-77
2021/10/08 06:11:06;;;;;;;;;;;10.80;99.90;;;;;;4957469;28;19949;-76
2021/10/08 06:13:56;;;;;;;;;;;10.80;99.90;;;;;;4952578;28;20010;-76
2021/10/08 06:16:49;;;;;;;;;;;10.90;99.90;;;;;;4953679;28;19937;-77
2021/10/08 06:19:41;;;;;;;;;;;10.90;99.90;;;;;;4946821;29;19926;-77
2021/10/08 06:22:31;;;;;;;;;;;11.00;99.90;;;;;;4951327;29;19953;-77
2021/10/08 06:25:19;;;;;;;;;;;11.00;99.90;;;;;;4951280;28;20021;-78
2021/10/08 06:28:10;;;;;;;;;;;11.00;99.90;;;;;;4958086;28;20375;-77
2021/10/08 06:31:01;;;;;;;;;;;11.00;99.90;;;;;;4962543;28;19926;-74
2021/10/08 06:33:58;;;;;;;;;;;11.00;99.90;;;;;;4946289;28;19949;-74
2021/10/08 06:36:47;;;;;;;;;;;11.10;99.90;;;;;;4945240;28;19927;-74
2021/10/08 06:39:35;;;;;;;;;;;11.20;99.90;;;;;;4967156;28;19930;-74
2021/10/08 06:42:26;;;;;;;;;;;11.30;99.90;;;;;;4953517;28;19927;-74
2021/10/08 06:45:25;;;;;;;;;;;11.30;99.90;;;;;;4947885;28;20025;-74
2021/10/08 06:48:17;;;;;;;;;;;11.30;99.90;;;;;;4946568;28;19931;-73
2021/10/08 06:51:07;;;;;;;;;;;11.30;99.90;;;;;;4950393;29;19930;-73
2021/10/08 06:53:56;;;;;;;;;;;11.30;99.90;;;;;;4954090;28;19981;-74
2021/10/08 06:56:45;;;;;;;;;;;11.40;99.90;;;;;;4948489;28;19981;-73
2021/10/08 06:59:39;;;;;;;;;;;11.40;99.90;;;;;;4947086;29;19934;-73
2021/10/08 07:02:29;;;;;;;;;;;11.40;99.90;;;;;;4955539;28;20368;-74
2021/10/08 07:05:22;;;;;;;;;;;11.40;99.90;;;;;;4954998;28;19927;-73
2021/10/08 07:08:12;;;;;;;;;;;11.40;99.90;;;;;;4944164;28;19927;-74
2021/10/08 07:11:01;;;;;;;;;;;11.40;99.90;;;;;;4955297;28;20291;-73
2021/10/08 07:13:54;;;;;;;;;;;11.40;99.90;;;;;;4945769;28;19935;-74
2021/10/08 07:16:43;;;;;;;;;;;11.40;99.90;;;;;;4947316;28;19989;-74
2021/10/08 07:19:32;;;;;;;;;;;11.40;99.90;;;;;;4951239;28;19927;-74
2021/10/08 07:22:22;;;;;;;;;;;11.30;99.90;;;;;;4951468;28;19927;-74
2021/10/08 07:25:11;;;;;;;;;;;11.30;99.90;;;;;;4948892;28;20250;-74
2021/10/08 07:28:00;;;;;;;;;;;11.30;99.90;;;;;;4948834;28;19934;-73
2021/10/08 07:30:49;;;;;;;;;;;11.30;99.90;;;;;;4943682;28;20588;-74
2021/10/08 07:33:39;;;;;;;;;;;11.40;99.90;;;;;;4947649;28;20351;-74
2021/10/08 07:36:28;;;;;;;;;;;11.40;99.90;;;;;;4948998;28;20296;-74
2021/10/08 07:39:18;;;;;;;;;;;11.40;99.90;;;;;;4945695;29;20343;-74
2021/10/08 07:42:07;;;;;;;;;;;11.50;99.90;;;;;;4951058;28;19942;-74
2021/10/08 07:44:56;;;;;;;;;;;11.50;99.90;;;;;;4958838;28;20018;-76
2021/10/08 07:47:44;;;;;;;;;;;11.50;99.90;;;;;;4946609;28;19983;-75
2021/10/08 07:50:34;;;;;;;;;;;11.50;99.90;;;;;;4947571;29;19927;-75
2021/10/08 07:53:23;;;;;;;;;;;11.50;99.90;;;;;;4947273;28;20247;-76
2021/10/08 07:56:14;;;;;;;;;;;11.50;99.90;;;;;;4944051;28;19926;-75
2021/10/08 07:59:03;;;;;;;;;;;11.50;99.90;;;;;;4947523;28;20419;-75
2021/10/08 08:01:52;;;;;;;;;;;11.50;99.90;;;;;;4940764;28;19926;-75
2021/10/08 08:04:41;;;;;;;;;;;11.50;99.90;;;;;;4949048;28;19927;-74
2021/10/08 08:07:30;;;;;;;;;;;11.50;99.90;;;;;;4944505;28;19927;-75
2021/10/08 08:10:19;;;;;;;;;;;11.60;99.90;;;;;;4944196;28;20017;-75
2021/10/08 08:13:09;;;;;;;;;;;11.60;99.90;;;;;;4945427;28;19980;-74
2021/10/08 08:15:58;;;;;;;;;;;11.60;99.90;;;;;;4944980;28;20382;-74
2021/10/08 08:18:47;;;;;;;;;;;11.60;99.90;;;;;;4933847;29;19927;-74
2021/10/08 08:21:37;;;;;;;;;;;11.60;99.90;;;;;;4958468;28;19988;-75
2021/10/08 08:24:26;;;;;;;;;;;11.70;99.90;;;;;;4945798;29;19926;-75
2021/10/08 08:27:14;;;;;;;;;;;11.70;99.90;;;;;;4949372;29;19931;-75
2021/10/08 08:30:06;;;;;;;;;;;11.80;99.90;;;;;;4951032;28;20387;-74
2021/10/08 08:32:55;;;;;;;;;;;11.90;99.90;;;;;;4962465;28;19989;-76
2021/10/08 08:35:46;;;;;;;;;;;11.90;99.90;;;;;;4963604;28;19930;-75
2021/10/08 08:38:35;;;;;;;;;;;11.90;99.90;;;;;;4952533;28;19927;-75
2021/10/08 08:41:24;;;;;;;;;;;12.00;99.90;;;;;;4946305;29;20397;-75
2021/10/08 08:44:20;;;;;;;;;;;12.10;99.90;;;;;;4937910;28;19931;-75
2021/10/08 08:47:14;;;;;;;;;;;12.10;99.90;;;;;;4960798;28;19933;-75
2021/10/08 08:50:03;;;;;;;;;;;12.20;99.90;;;;;;4942242;29;19937;-75
2021/10/08 08:53:18;;;;;;;;;;;12.20;99.90;;;;;;4944687;28;19926;-75
2021/10/08 08:56:07;;;;;;;;;;;12.30;99.90;;;;;;4937877;29;19931;-74
2021/10/08 08:59:00;;;;;;;;;;;12.40;99.90;;;;;;4951186;29;19937;-77
2021/10/08 09:02:02;;;;;;;;;;;12.40;99.90;;;;;;4954006;28;19930;-76
2021/10/08 09:04:53;;;;;;;;;;;12.50;99.90;;;;;;4960174;28;20397;-76
2021/10/08 09:07:42;;;;;;;;;;;12.50;99.90;;;;;;4960258;29;19926;-77
2021/10/08 09:10:30;;;;;;;;;;;12.60;99.90;;;;;;4951297;28;19993;-76
2021/10/08 09:13:25;;;;;;;;;;;12.70;99.90;;;;;;4958795;28;19991;-77
2021/10/08 09:16:14;;;;;;;;;;;12.70;99.90;;;;;;4946823;28;19949;-74
2021/10/08 09:19:04;;;;;;;;;;;12.80;99.90;;;;;;4949375;28;19933;-75
2021/10/08 09:21:54;;;;;;;;;;;12.90;99.90;;;;;;4948147;28;19934;-76
2021/10/08 09:24:43;;;;;;;;;;;12.90;99.90;;;;;;4955324;28;20417;-75
2021/10/08 09:27:36;;;;;;;;;;;13.00;99.90;;;;;;4941156;28;20056;-75
2021/10/08 09:30:26;;;;;;;;;;;13.00;99.90;;;;;;4947298;28;19926;-76
2021/10/08 09:33:16;;;;;;;;;;;13.10;99.90;;;;;;4952315;28;19934;-76
2021/10/08 09:36:12;;;;;;;;;;;13.10;99.90;;;;;;4957322;28;20380;-75
2021/10/08 09:39:16;;;;;;;;;;;13.20;99.90;;;;;;4945323;28;19962;-76
2021/10/08 09:42:05;;;;;;;;;;;13.30;99.90;;;;;;4953859;28;19927;-77
2021/10/08 09:44:56;;;;;;;;;;;13.30;99.90;;;;;;4956707;28;20012;-75
2021/10/08 09:47:57;;;;;;;;;;;13.40;99.90;;;;;;4948994;28;20001;-76
2021/10/08 09:51:14;;;;;;;;;;;13.50;99.90;;;;;;4952362;28;19927;-76
2021/10/08 09:54:04;;;;;;;;;;;13.60;99.90;;;;;;4928269;28;20392;-74
2021/10/08 09:57:00;;;;;;;;;;;13.60;99.90;;;;;;4950469;28;19933;-75
2021/10/08 09:59:50;;;;;;;;;;;13.70;99.90;;;;;;4947551;29;19934;-75
2021/10/08 10:02:39;;;;;;;;;;;13.70;99.90;;;;;;4956114;29;20268;-76
2021/10/08 10:05:28;;;;;;;;;;;13.80;99.90;;;;;;4939914;29;20287;-71
2021/10/08 10:08:17;;;;;;;;;;;13.90;99.90;;;;;;4953653;28;19934;-72
2021/10/08 10:11:07;;;;;;;;;;;14.00;99.90;;;;;;4956319;28;19982;-76
2021/10/08 10:13:59;;;;;;;;;;;14.10;99.90;;;;;;4956386;28;20396;-70
2021/10/08 10:16:48;;;;;;;;;;;14.20;99.90;;;;;;4951988;28;20025;-72
2021/10/08 10:19:39;;;;;;;;;;;14.30;99.90;;;;;;4947645;29;20021;-71
2021/10/08 10:22:32;;;;;;;;;;;14.50;99.90;;;;;;4937587;28;19931;-71
2021/10/08 10:25:22;;;;;;;;;;;14.70;99.90;;;;;;4945947;29;19938;-73
2021/10/08 10:28:12;;;;;;;;;;;14.90;99.90;;;;;;4944802;29;19927;-73
2021/10/08 10:31:07;;;;;;;;;;;15.00;99.90;;;;;;4926750;28;19934;-70
2021/10/08 10:34:00;;;;;;;;;;;15.20;99.90;;;;;;4952818;28;19933;-72
2021/10/08 10:36:48;;;;;;;;;;;15.30;99.90;;;;;;4939874;28;19940;-75
2021/10/08 10:39:37;;;;;;;;;;;15.30;99.90;;;;;;4948149;28;20489;-72
2021/10/08 10:42:26;;;;;;;;;;;15.40;99.90;;;;;;4957933;28;19926;-71
2021/10/08 10:45:40;;;;;;;;;;;15.50;99.90;;;;;;4950617;28;20009;-74
2021/10/08 10:48:31;;;;;;;;;;;15.50;99.90;;;;;;4947023;29;19945;-71
2021/10/08 10:51:32;;;;;;;;;;;15.60;99.90;;;;;;4954325;28;19926;-76
2021/10/08 10:54:59;;;;;;;;;;;15.80;99.90;;;;;;4959945;28;19935;-76
2021/10/08 10:57:50;;;;;;;;;;;16.00;99.90;;;;;;4955248;28;19935;-77
2021/10/08 11:00:41;;;;;;;;;;;16.10;99.90;;;;;;4947535;28;19927;-73
2021/10/08 11:03:34;;;;;;;;;;;16.30;99.90;;;;;;4946513;28;19935;-70
2021/10/08 11:06:24;;;;;;;;;;;16.30;99.90;;;;;;4950808;28;20379;-72
2021/10/08 11:09:20;;;;;;;;;;;16.40;99.90;;;;;;4954303;28;19926;-72
2021/10/08 11:12:28;;;;;;;;;;;16.50;99.90;;;;;;4951156;28;19999;-72
2021/10/08 11:15:33;;;;;;;;;;;16.50;99.90;;;;;;4945632;28;20302;-71
2021/10/08 11:18:55;;;;;;;;;;;16.50;99.90;;;;;;4952462;28;19938;-69
2021/10/08 11:21:52;;;;;;;;;;;16.60;99.90;;;;;;4949746;28;19926;-71
2021/10/08 11:24:41;;;;;;;;;;;16.60;99.90;;;;;;4949508;29;19926;-72
2021/10/08 11:27:29;;;;;;;;;;;16.70;99.90;;;;;;4953428;28;21517;-71
2021/10/08 11:30:18;;;;;;;;;;;16.70;99.90;;;;;;4935710;28;19927;-72
2021/10/08 11:33:07;;;;;;;;;;;16.70;99.90;;;;;;4953935;28;19926;-70
2021/10/08 11:35:57;;;;;;;;;;;16.70;99.90;;;;;;4937669;29;20473;-70
2021/10/08 11:38:46;;;;;;;;;;;16.60;99.90;;;;;;4949847;28;19983;-71
2021/10/08 11:41:35;;;;;;;;;;;16.50;99.90;;;;;;4940141;28;19926;-72
2021/10/08 11:44:26;;;;;;;;;;;16.50;99.90;;;;;;4947674;28;19953;-70
2021/10/08 11:47:20;;;;;;;;;;;16.50;99.90;;;;;;4943865;28;19927;-71
2021/10/08 11:50:16;;;;;;;;;;;16.40;99.90;;;;;;4949471;29;19927;-70
2021/10/08 11:53:08;;;;;;;;;;;16.30;99.90;;;;;;4947406;28;19933;-70
2021/10/08 11:56:26;;;;;;;;;;;16.30;99.90;;;;;;4933205;29;19988;-70
2021/10/08 11:59:19;;;;;;;;;;;16.30;99.90;;;;;;4943022;28;19926;-71
2021/10/08 12:02:13;;;;;;;;;;;16.20;99.90;;;;;;4949549;28;19933;-70
2021/10/08 12:05:03;;;;;;;;;;;16.20;99.90;;;;;;4941893;29;20307;-72
2021/10/08 12:07:58;;;;;;;;;;;16.10;99.90;;;;;;4946743;28;19935;-72
2021/10/08 12:10:58;;;;;;;;;;;16.10;99.90;;;;;;4948248;28;19958;-72
2021/10/08 12:13:50;;;;;;;;;;;16.10;99.90;;;;;;4939952;28;19927;-71
2021/10/08 12:16:40;;;;;;;;;;;16.00;99.90;;;;;;4955362;28;19933;-72
2021/10/08 12:19:29;;;;;;;;;;;16.00;99.90;;;;;;4947150;28;19937;-72
2021/10/08 12:22:22;;;;;;;;;;;16.10;99.90;;;;;;4951939;28;19934;-72
2021/10/08 12:25:12;;;;;;;;;;;16.10;99.90;;;;;;4951894;28;19941;-74
2021/10/08 12:28:03;;;;;;;;;;;16.20;99.90;;;;;;4947463;28;19935;-72
2021/10/08 12:30:58;;;;;;;;;;;16.30;99.90;;;;;;4953050;28;19926;-72
2021/10/08 12:33:48;;;;;;;;;;;16.30;99.90;;;;;;4947648;28;20511;-72
2021/10/08 12:36:37;;;;;;;;;;;16.40;99.90;;;;;;4961887;28;20552;-73
2021/10/08 12:39:25;;;;;;;;;;;16.50;99.90;;;;;;4961027;28;19930;-74
2021/10/08 12:42:17;;;;;;;;;;;16.50;99.90;;;;;;4945707;28;19927;-73
2021/10/08 12:48:28;;;;;;;;;;;16.60;99.90;;;;;;4950987;28;19934;-74
2021/10/08 12:51:17;;;;;;;;;;;16.60;99.90;;;;;;4947347;28;19931;-70
2021/10/08 12:54:12;;;;;;;;;;;16.60;99.90;;;;;;4936191;28;20021;-71
2021/10/08 12:57:09;;;;;;;;;;;16.60;99.90;;;;;;4946097;28;19958;-70
2021/10/08 12:59:58;;;;;;;;;;;16.60;99.90;;;;;;4930766;28;19959;-71
2021/10/08 13:02:48;;;;;;;;;;;16.60;99.90;;;;;;4955251;28;19926;-71
2021/10/08 13:05:41;;;;;;;;;;;16.70;99.90;;;;;;4938495;28;19931;-71
2021/10/08 13:08:32;;;;;;;;;;;16.80;99.90;;;;;;4941689;28;19937;-70
2021/10/08 13:11:21;;;;;;;;;;;16.90;99.90;;;;;;4953372;28;19994;-71
2021/10/08 13:14:17;;;;;;;;;;;17.00;99.90;;;;;;4947967;28;19934;-73
2021/10/08 13:17:16;;;;;;;;;;;17.10;99.90;;;;;;4948298;28;19931;-74
2021/10/08 13:20:09;;;;;;;;;;;17.10;99.90;;;;;;4953898;28;19966;-74
2021/10/08 13:23:21;;;;;;;;;;;17.00;99.90;;;;;;4949606;28;19985;-73
2021/10/08 13:26:11;;;;;;;;;;;17.00;99.90;;;;;;4946528;28;19933;-75
2021/10/08 13:28:59;;;;;;;;;;;16.90;99.90;;;;;;4947649;29;19927;-73
2021/10/08 13:31:48;;;;;;;;;;;16.90;99.90;;;;;;4947691;28;19935;-73
2021/10/08 13:34:37;;;;;;;;;;;16.80;99.90;;;;;;4953132;28;20077;-73
2021/10/08 13:40:44;;;;;;;;;;;16.70;99.90;;;;;;4947997;29;19927;-75
2021/10/08 13:43:58;;;;;;;;;;;16.80;99.90;;;;;;4935692;28;20372;-72
2021/10/08 13:46:47;;;;;;;;;;;16.80;99.90;;;;;;4935093;28;20029;-70
2021/10/08 13:49:35;;;;;;;;;;;16.80;99.90;;;;;;4950222;28;19927;-71
2021/10/08 13:52:26;;;;;;;;;;;16.90;99.90;;;;;;4950216;28;19930;-70
2021/10/08 13:55:16;;;;;;;;;;;17.00;99.90;;;;;;4959113;28;19927;-72
2021/10/08 13:58:08;;;;;;;;;;;17.00;99.90;;;;;;4950840;28;19927;-71
2021/10/08 14:00:58;;;;;;;;;;;17.00;99.90;;;;;;4945333;28;19930;-74
2021/10/08 14:03:54;;;;;;;;;;;17.10;99.90;;;;;;4955964;28;19927;-72
2021/10/08 14:07:03;;;;;;;;;;;17.10;99.90;;;;;;4951567;28;19931;-72
2021/10/08 14:13:00;;;;;;;;;;;17.00;99.90;;;;;;4959871;28;19926;-72
2021/10/08 14:15:50;;;;;;;;;;;17.00;99.90;;;;;;4959555;28;19931;-73
2021/10/08 14:18:38;;;;;;;;;;;17.10;99.90;;;;;;4959515;28;20085;-71
2021/10/08 14:21:28;;;;;;;;;;;17.20;99.90;;;;;;4947563;29;20291;-72
2021/10/08 14:24:17;;;;;;;;;;;17.20;99.90;;;;;;4944853;28;19926;-71
2021/10/08 14:27:05;;;;;;;;;;;17.30;99.90;;;;;;4945777;28;19926;-73
2021/10/08 14:29:56;;;;;;;;;;;17.40;99.70;;;;;;4941198;28;20306;-72
2021/10/08 14:32:46;;;;;;;;;;;17.40;99.30;;;;;;4958988;28;19933;-71
2021/10/08 14:35:37;;;;;;;;;;;17.40;99.50;;;;;;4947864;28;19926;-71
2021/10/08 14:38:26;;;;;;;;;;;17.30;99.80;;;;;;4942660;29;19926;-71
2021/10/08 14:41:15;;;;;;;;;;;17.20;99.90;;;;;;4952945;28;20391;-71
2021/10/08 14:44:05;;;;;;;;;;;17.10;99.90;;;;;;4952135;29;20017;-71
2021/10/08 14:46:55;;;;;;;;;;;17.00;99.90;;;;;;4949935;28;20318;-73
2021/10/08 14:49:45;;;;;;;;;;;16.90;99.90;;;;;;4954670;28;19926;-71
2021/10/08 14:52:34;;;;;;;;;;;16.90;99.90;;;;;;4938171;28;20319;-71
2021/10/08 14:58:30;;;;;;;;;;;16.80;99.90;;;;;;4946491;28;19927;-72
2021/10/08 15:01:20;;;;;;;;;;;16.80;99.90;;;;;;4934540;28;19962;-72
2021/10/08 15:04:13;;;;;;;;;;;16.80;99.90;;;;;;4952426;29;19930;-73
2021/10/08 15:07:02;;;;;;;;;;;16.80;99.90;;;;;;4941705;29;19935;-71
2021/10/08 15:09:51;;;;;;;;;;;16.80;99.90;;;;;;4957316;28;19926;-72
2021/10/08 15:12:40;;;;;;;;;;;16.80;99.90;;;;;;4956806;28;20024;-71
2021/10/08 15:15:29;;;;;;;;;;;16.90;99.90;;;;;;4959478;28;19937;-72
2021/10/08 15:18:18;;;;;;;;;;;16.90;99.90;;;;;;4960680;28;19926;-72
2021/10/08 15:21:09;;;;;;;;;;;16.90;99.90;;;;;;4957463;28;19926;-71
2021/10/08 15:23:58;;;;;;;;;;;16.80;99.90;;;;;;4955075;28;19926;-71
2021/10/08 15:26:47;;;;;;;;;;;16.80;99.90;;;;;;4956924;29;20046;-70
2021/10/08 15:29:36;;;;;;;;;;;16.80;99.90;;;;;;4958533;28;19927;-71
2021/10/08 15:32:24;;;;;;;;;;;16.80;99.90;;;;;;4945042;28;19933;-72
2021/10/08 15:35:13;;;;;;;;;;;16.80;99.90;;;;;;4956337;28;19938;-71
2021/10/08 15:38:03;;;;;;;;;;;16.80;99.90;;;;;;4946424;28;19927;-72
2021/10/08 15:40:53;;;;;;;;;;;16.80;99.90;;;;;;4952346;29;19927;-71
2021/10/08 15:43:42;;;;;;;;;;;16.70;99.90;;;;;;4950062;28;19926;-71
2021/10/08 15:46:31;;;;;;;;;;;16.70;99.90;;;;;;4951214;28;20013;-72
2021/10/08 15:49:20;;;;;;;;;;;16.70;99.90;;;;;;4951934;28;19949;-72
2021/10/08 15:52:09;;;;;;;;;;;16.70;99.90;;;;;;4953427;28;19927;-72
2021/10/08 15:55:01;;;;;;;;;;;16.60;99.90;;;;;;4948917;29;20022;-72
2021/10/08 15:57:50;;;;;;;;;;;16.60;99.90;;;;;;4945298;28;20332;-72
2021/10/08 16:00:40;;;;;;;;;;;16.60;99.90;;;;;;4944363;28;20338;-75
2021/10/08 16:03:29;;;;;;;;;;;16.50;99.90;;;;;;4947904;28;20348;-72
2021/10/08 16:06:19;;;;;;;;;;;16.50;99.90;;;;;;4951981;28;19941;-72
2021/10/08 16:09:07;;;;;;;;;;;16.50;99.90;;;;;;4953408;29;20026;-72
2021/10/08 16:11:57;;;;;;;;;;;16.40;99.90;;;;;;4956768;28;19952;-72
2021/10/08 16:14:46;;;;;;;;;;;16.40;99.90;;;;;;4943863;28;19937;-72
2021/10/08 16:17:39;;;;;;;;;;;16.30;99.90;;;;;;4957897;29;20013;-72
2021/10/08 16:20:29;;;;;;;;;;;16.30;99.90;;;;;;4945772;28;20014;-74
2021/10/08 16:23:17;;;;;;;;;;;16.20;99.90;;;;;;4956277;28;20402;-77
2021/10/08 16:26:06;;;;;;;;;;;16.20;99.90;;;;;;4959594;28;19932;-72
2021/10/08 16:28:58;;;;;;;;;;;16.10;99.90;;;;;;4959218;29;20350;-72
2021/10/08 16:31:48;;;;;;;;;;;16.10;99.90;;;;;;4956201;28;19931;-72
2021/10/08 16:34:43;;;;;;;;;;;16.00;99.90;;;;;;4960560;28;19974;-72
2021/10/08 16:37:58;;;;;;;;;;;16.00;99.90;;;;;;4958688;28;19926;-72
2021/10/08 16:40:48;;;;;;;;;;;15.90;99.90;;;;;;4955435;29;19927;-73
2021/10/08 16:43:36;;;;;;;;;;;15.90;99.90;;;;;;4958576;28;19932;-73
2021/10/08 16:46:27;;;;;;;;;;;15.90;99.90;;;;;;4950334;28;20335;-72
2021/10/08 16:49:16;;;;;;;;;;;15.80;99.90;;;;;;4946281;28;19926;-73
2021/10/08 16:52:05;;;;;;;;;;;15.80;99.90;;;;;;4943163;29;20017;-72
2021/10/08 16:54:54;;;;;;;;;;;15.80;99.90;;;;;;4957140;28;19930;-71